Time;durP1;ratioP1;P1;durP2;ratioP2;P2;SDS_P1;SDS_P2;PMS_P1;PMS_P2;Temp;Humidity;BMP_temperature;BMP_pressure;BME280_temperature;BME280_humidity;BME280_pressure;Samples;Min_cycle;Max_cycle;Signal;HPM_P1;HPM_P2
2021/03/01 00:02:05;;;;;;;19.30;8.20;;;;;;;6.80;100.00;102935.34;4990986;28;20225;-69
2021/03/01 00:04:31;;;;;;;18.13;8.50;;;;;;;6.78;100.00;102936.56;4992237;28;20201;-68
2021/03/01 00:06:56;;;;;;;16.67;8.17;;;;;;;6.62;100.00;102929.53;4991648;28;20248;-69
2021/03/01 00:09:22;;;;;;;12.20;7.60;;;;;;;6.63;100.00;102939.31;4992096;28;20248;-68
2021/03/01 00:11:48;;;;;;;13.30;7.67;;;;;;;6.70;100.00;102940.25;5007275;28;20291;-68
2021/03/01 00:14:13;;;;;;;16.20;8.10;;;;;;;6.72;100.00;102943.56;4959269;28;20217;-68
2021/03/01 00:16:42;;;;;;;15.67;8.63;;;;;;;6.74;100.00;102940.66;4982460;28;20270;-68
2021/03/01 00:19:07;;;;;;;17.83;8.30;;;;;;;6.55;100.00;102935.88;4991804;28;20201;-69
2021/03/01 00:21:33;;;;;;;14.70;7.83;;;;;;;6.59;100.00;102929.06;4974618;28;20217;-69
2021/03/01 00:23:58;;;;;;;16.77;7.83;;;;;;;6.66;100.00;102941.63;4983615;28;20700;-70
2021/03/01 00:26:24;;;;;;;15.63;8.07;;;;;;;6.71;100.00;102939.19;4982715;28;20767;-70
2021/03/01 00:28:53;;;;;;;23.67;9.20;;;;;;;6.77;100.00;102934.88;4985365;28;20214;-68
2021/03/01 00:31:18;;;;;;;15.07;8.50;;;;;;;6.55;100.00;102939.41;4971449;28;20230;-68
2021/03/01 00:33:44;;;;;;;20.67;8.33;;;;;;;6.33;100.00;102941.44;4973900;28;20197;-68
2021/03/01 00:36:10;;;;;;;16.33;9.20;;;;;;;6.60;100.00;102934.28;4990736;28;20224;-69
2021/03/01 00:38:40;;;;;;;20.13;9.43;;;;;;;6.53;100.00;102938.78;5007608;28;20186;-69
2021/03/01 00:41:08;;;;;;;26.00;10.50;;;;;;;6.31;100.00;102938.09;4988753;28;20217;-70
2021/03/01 00:43:35;;;;;;;24.33;10.27;;;;;;;6.33;100.00;102928.78;4971403;28;20206;-69
2021/03/01 00:46:01;;;;;;;25.27;10.47;;;;;;;6.00;100.00;102934.78;4979993;28;20584;-70
2021/03/01 00:48:27;;;;;;;28.70;10.30;;;;;;;6.04;100.00;102937.94;4989750;28;20178;-70
2021/03/01 00:50:52;;;;;;;28.50;10.60;;;;;;;6.06;100.00;102925.94;5006444;28;20225;-70
2021/03/01 00:53:24;;;;;;;25.63;11.13;;;;;;;6.22;100.00;102933.81;4967414;28;20261;-70
2021/03/01 00:55:50;;;;;;;24.13;10.93;;;;;;;6.06;100.00;102931.31;4955531;28;20218;-69
2021/03/01 00:58:16;;;;;;;27.37;11.17;;;;;;;6.14;100.00;102925.84;4963120;28;20247;-69
2021/03/01 01:00:45;;;;;;;29.83;11.73;;;;;;;6.06;100.00;102925.94;4981773;28;20221;-69
2021/03/01 01:03:13;;;;;;;24.70;10.93;;;;;;;5.88;100.00;102930.88;4989675;28;20209;-71
2021/03/01 01:06:05;;;;;;;29.63;11.07;;;;;;;5.81;100.00;102923.72;4986384;28;20221;-70
2021/03/01 01:08:31;;;;;;;30.33;11.77;;;;;;;5.75;100.00;102932.56;5006546;28;20189;-69
2021/03/01 01:10:58;;;;;;;28.63;11.83;;;;;;;5.82;100.00;102926.25;5006622;28;20229;-69
2021/03/01 01:13:24;;;;;;;29.03;11.77;;;;;;;5.59;100.00;102923.78;4989555;28;20213;-69
2021/03/01 01:15:52;;;;;;;27.47;10.33;;;;;;;5.50;100.00;102917.63;4980486;28;20211;-70
2021/03/01 01:18:20;;;;;;;26.90;10.27;;;;;;;5.48;100.00;102905.38;4967807;28;20192;-69
2021/03/01 01:20:45;;;;;;;28.20;11.33;;;;;;;5.43;100.00;102915.84;4957650;28;20229;-69
2021/03/01 01:23:13;;;;;;;32.23;10.47;;;;;;;5.56;100.00;102913.34;4984111;28;20329;-69
2021/03/01 01:25:39;;;;;;;25.87;11.70;;;;;;;5.63;100.00;102914.31;4966199;28;20244;-70
2021/03/01 01:28:07;;;;;;;26.17;10.93;;;;;;;5.84;100.00;102912.56;4957390;28;20214;-70
2021/03/01 01:30:33;;;;;;;24.40;10.10;;;;;;;5.86;100.00;102905.97;4984311;28;20217;-70
2021/03/01 01:33:01;;;;;;;24.53;10.03;;;;;;;5.85;100.00;102898.88;4959486;28;20263;-69
2021/03/01 01:35:26;;;;;;;18.53;9.43;;;;;;;5.94;100.00;102897.78;4973733;28;20240;-70
2021/03/01 01:37:52;;;;;;;24.47;9.50;;;;;;;6.00;100.00;102897.00;4974270;28;20182;-69
2021/03/01 01:40:20;;;;;;;20.33;9.60;;;;;;;5.82;100.00;102888.50;5005982;28;20289;-69
2021/03/01 01:42:46;;;;;;;14.23;7.90;;;;;;;5.82;100.00;102883.09;4973035;28;20244;-69
2021/03/01 01:45:14;;;;;;;13.23;7.20;;;;;;;5.70;100.00;102889.13;4971645;28;20204;-70
2021/03/01 01:47:44;;;;;;;12.37;6.97;;;;;;;5.84;100.00;102897.22;4966003;28;20209;-71
2021/03/01 01:50:11;;;;;;;13.07;6.80;;;;;;;5.96;100.00;102884.94;4989328;28;20548;-69
2021/03/01 01:52:39;;;;;;;15.40;7.10;;;;;;;6.04;100.00;102887.50;4971880;28;20172;-70
2021/03/01 01:55:05;;;;;;;13.70;7.53;;;;;;;5.86;100.00;102889.78;4977635;28;20281;-70
2021/03/01 01:57:31;;;;;;;13.27;7.43;;;;;;;5.68;100.00;102877.69;4969702;28;20190;-69
2021/03/01 01:59:59;;;;;;;14.37;7.30;;;;;;;5.75;100.00;102879.47;4965320;28;20685;-69
2021/03/01 02:02:25;;;;;;;13.83;7.20;;;;;;;5.91;100.00;102870.34;4988245;28;20230;-69
2021/03/01 02:04:58;;;;;;;14.17;7.57;;;;;;;6.06;100.00;102868.44;4973628;28;20214;-70
2021/03/01 02:07:52;;;;;;;14.70;7.77;;;;;;;6.03;100.00;102864.28;4956445;28;20229;-69
2021/03/01 02:10:27;;;;;;;12.50;7.07;;;;;;;6.10;100.00;102876.00;4990299;28;20190;-69
2021/03/01 02:13:13;;;;;;;14.27;7.50;;;;;;;5.95;100.00;102872.50;4989071;28;20284;-69
2021/03/01 02:15:44;;;;;;;13.30;7.57;;;;;;;5.85;100.00;102877.31;4985881;28;20226;-70
2021/03/01 02:18:10;;;;;;;15.67;7.80;;;;;;;5.72;100.00;102880.84;4957728;28;20197;-69
2021/03/01 02:20:45;;;;;;;14.03;7.33;;;;;;;5.58;100.00;102873.56;4988656;28;20669;-68
2021/03/01 02:23:11;;;;;;;14.50;7.73;;;;;;;5.77;100.00;102880.13;4966600;28;20214;-69
2021/03/01 02:25:37;;;;;;;16.07;7.93;;;;;;;5.86;100.00;102883.53;4979788;28;20595;-69
2021/03/01 02:28:07;;;;;;;16.03;9.10;;;;;;;5.89;100.00;102886.69;4971320;28;20193;-69
2021/03/01 02:30:34;;;;;;;18.30;8.73;;;;;;;5.97;100.00;102886.63;4949174;28;20221;-69
2021/03/01 02:33:14;;;;;;;19.97;8.80;;;;;;;5.94;100.00;102881.59;4990561;28;20717;-69
2021/03/01 02:35:53;;;;;;;15.83;8.43;;;;;;;5.93;100.00;102887.16;4963940;28;20221;-69
2021/03/01 02:38:21;;;;;;;18.00;8.47;;;;;;;5.92;100.00;102889.03;4953913;28;20197;-68
2021/03/01 02:40:49;;;;;;;15.60;8.17;;;;;;;5.99;100.00;102883.72;4974148;28;20353;-70
2021/03/01 02:43:15;;;;;;;15.53;8.03;;;;;;;6.05;100.00;102889.19;4957398;28;20330;-69
2021/03/01 02:45:42;;;;;;;14.40;7.63;;;;;;;5.92;100.00;102894.44;4980771;28;20695;-69
2021/03/01 02:48:08;;;;;;;16.70;8.23;;;;;;;5.86;100.00;102889.78;4993180;28;20201;-69
2021/03/01 02:50:34;;;;;;;16.20;8.50;;;;;;;5.62;100.00;102891.06;4992413;28;20217;-69
2021/03/01 02:53:00;;;;;;;19.83;9.17;;;;;;;5.34;100.00;102883.78;4956157;28;20239;-68
2021/03/01 02:55:25;;;;;;;17.97;8.30;;;;;;;5.44;100.00;102887.91;4965273;28;20706;-69
2021/03/01 02:57:51;;;;;;;19.00;7.97;;;;;;;5.53;100.00;102886.75;4974711;28;20201;-68
2021/03/01 03:00:17;;;;;;;18.73;9.47;;;;;;;5.31;100.00;102884.16;4952515;28;20617;-69
2021/03/01 03:02:45;;;;;;;21.17;9.23;;;;;;;5.23;100.00;102885.06;4959093;28;20312;-69
2021/03/01 03:05:11;;;;;;;15.03;7.90;;;;;;;5.34;100.00;102881.94;4976364;28;20647;-69
2021/03/01 03:07:40;;;;;;;19.27;8.87;;;;;;;5.55;100.00;102884.72;4992735;28;20198;-69
2021/03/01 03:10:07;;;;;;;18.40;8.87;;;;;;;5.54;100.00;102885.75;4961350;28;20194;-69
2021/03/01 03:12:37;;;;;;;18.00;9.00;;;;;;;5.65;100.00;102882.59;4991284;28;20418;-70
2021/03/01 03:15:03;;;;;;;15.77;8.23;;;;;;;5.52;100.00;102891.31;4974670;28;20201;-70
2021/03/01 03:17:34;;;;;;;17.00;8.60;;;;;;;5.55;100.00;102890.13;4968637;28;20556;-69
2021/03/01 03:20:00;;;;;;;17.33;9.40;;;;;;;5.52;100.00;102895.88;4992828;28;20547;-69
2021/03/01 03:22:26;;;;;;;19.10;9.17;;;;;;;5.53;100.00;102897.53;4974799;28;20274;-69
2021/03/01 03:24:51;;;;;;;20.63;8.30;;;;;;;5.47;100.00;102896.44;4981272;28;20201;-68
2021/03/01 03:27:18;;;;;;;18.13;9.47;;;;;;;5.43;100.00;102897.00;4940191;28;20237;-69
2021/03/01 03:29:43;;;;;;;17.87;8.87;;;;;;;5.43;100.00;102891.59;4984116;28;20186;-70
2021/03/01 03:32:08;;;;;;;18.87;9.70;;;;;;;5.32;100.00;102894.75;4990741;28;20248;-69
2021/03/01 03:34:39;;;;;;;17.80;8.47;;;;;;;5.39;100.00;102887.59;4960431;28;20210;-69
2021/03/01 03:37:09;;;;;;;16.67;8.47;;;;;;;5.19;100.00;102899.09;4975360;28;20234;-70
2021/03/01 03:39:38;;;;;;;15.90;8.60;;;;;;;5.18;100.00;102905.50;4976799;28;20665;-69
2021/03/01 03:42:04;;;;;;;17.60;8.73;;;;;;;5.19;100.00;102899.94;4958847;28;21173;-69
2021/03/01 03:44:34;;;;;;;21.50;9.40;;;;;;;5.09;100.00;102903.88;4957903;28;20234;-69
2021/03/01 03:47:03;;;;;;;20.37;9.83;;;;;;;5.05;100.00;102902.59;4951446;28;20589;-70
2021/03/01 03:49:28;;;;;;;19.07;9.27;;;;;;;5.14;100.00;102902.31;4959723;28;20197;-69
2021/03/01 03:51:54;;;;;;;18.97;8.73;;;;;;;5.18;100.00;102911.75;4974530;28;20682;-69
2021/03/01 03:54:22;;;;;;;22.60;9.87;;;;;;;5.18;100.00;102914.44;4968750;28;20589;-69
2021/03/01 03:56:52;;;;;;;15.63;8.17;;;;;;;4.96;100.00;102917.13;4968200;28;20221;-69
2021/03/01 03:59:17;;;;;;;19.13;9.17;;;;;;;5.02;100.00;102911.88;4966102;28;20731;-69
2021/03/01 04:01:45;;;;;;;17.87;8.83;;;;;;;4.95;100.00;102911.94;4951632;28;20226;-70
2021/03/01 04:04:10;;;;;;;19.93;8.90;;;;;;;4.90;100.00;102914.34;4969329;28;20273;-68
2021/03/01 04:06:42;;;;;;;17.87;8.47;;;;;;;4.99;100.00;102920.28;4920020;29;20292;-70
2021/03/01 04:09:11;;;;;;;20.50;9.33;;;;;;;5.07;100.00;102928.31;4952868;29;20195;-69
2021/03/01 04:11:39;;;;;;;21.20;9.00;;;;;;;5.14;100.00;102923.88;4951981;29;20230;-69
2021/03/01 04:14:06;;;;;;;20.33;8.83;;;;;;;4.92;100.00;102923.06;4968657;28;20207;-70
2021/03/01 04:16:32;;;;;;;18.17;8.60;;;;;;;4.92;100.00;102925.75;4979320;28;20290;-69
2021/03/01 04:19:02;;;;;;;13.37;8.07;;;;;;;5.06;100.00;102923.94;4991553;28;20194;-69
2021/03/01 04:21:32;;;;;;;15.77;7.53;;;;;;;5.16;100.00;102924.53;4974407;28;20225;-69
2021/03/01 04:23:57;;;;;;;14.63;7.93;;;;;;;5.01;100.00;102925.50;4967918;28;20658;-70
2021/03/01 04:26:23;;;;;;;17.70;8.30;;;;;;;5.08;100.00;102916.53;4982133;28;20213;-69
2021/03/01 04:28:48;;;;;;;15.93;8.13;;;;;;;5.27;100.00;102921.38;4953247;28;20182;-69
2021/03/01 04:31:16;;;;;;;14.77;8.17;;;;;;;5.10;100.00;102930.63;4970563;28;20221;-69
2021/03/01 04:33:42;;;;;;;14.80;7.73;;;;;;;5.12;100.00;102931.28;4958586;28;20208;-69
2021/03/01 04:36:07;;;;;;;15.17;7.73;;;;;;;5.20;100.00;102930.38;4987833;28;20209;-70
2021/03/01 04:38:33;;;;;;;16.53;8.87;;;;;;;5.14;100.00;102923.03;4971582;28;20233;-71
2021/03/01 04:40:58;;;;;;;15.80;8.17;;;;;;;5.09;100.00;102922.75;4971274;28;20222;-69
2021/03/01 04:43:24;;;;;;;17.87;7.70;;;;;;;5.10;100.00;102925.25;4954361;28;20218;-70
2021/03/01 04:45:53;;;;;;;16.23;8.70;;;;;;;5.15;100.00;102919.34;4972608;28;20226;-68
2021/03/01 04:48:19;;;;;;;17.87;8.27;;;;;;;5.22;100.00;102926.50;4943165;28;20240;-70
2021/03/01 04:50:52;;;;;;;13.67;7.67;;;;;;;5.20;100.00;102917.78;4970539;28;20589;-71
2021/03/01 04:53:17;;;;;;;17.33;7.63;;;;;;;5.02;100.00;102916.44;4945737;28;20214;-68
2021/03/01 04:55:49;;;;;;;13.70;7.40;;;;;;;5.00;100.00;102924.69;4960156;28;20594;-69
2021/03/01 04:58:19;;;;;;;16.17;7.87;;;;;;;4.90;100.00;102917.03;4942549;28;20194;-68
2021/03/01 05:00:44;;;;;;;17.97;7.93;;;;;;;4.79;100.00;102923.66;4938935;28;20218;-71
2021/03/01 05:03:10;;;;;;;17.57;7.70;;;;;;;4.78;100.00;102924.69;4938225;28;20232;-69
2021/03/01 05:05:35;;;;;;;18.30;7.87;;;;;;;4.93;100.00;102924.72;4954436;28;20226;-68
2021/03/01 05:08:05;;;;;;;14.30;7.40;;;;;;;5.01;100.00;102929.03;4938282;28;20202;-69
2021/03/01 05:10:31;;;;;;;15.57;7.43;;;;;;;5.04;100.00;102927.84;4970558;28;20272;-69
2021/03/01 05:12:57;;;;;;;14.90;7.43;;;;;;;4.94;100.00;102929.09;4954486;28;20675;-68
2021/03/01 05:15:25;;;;;;;13.87;7.00;;;;;;;5.10;100.00;102921.72;4978987;28;20592;-68
2021/03/01 05:17:51;;;;;;;14.10;6.73;;;;;;;5.08;100.00;102929.97;4977894;28;20178;-69
2021/03/01 05:20:19;;;;;;;10.93;6.27;;;;;;;5.12;100.00;102928.59;4970648;28;20887;-68
2021/03/01 05:22:46;;;;;;;12.70;6.73;;;;;;;4.97;100.00;102920.69;4969917;28;20292;-68
2021/03/01 05:25:15;;;;;;;13.03;6.30;;;;;;;5.00;100.00;102918.47;4994548;28;20220;-69
2021/03/01 05:27:42;;;;;;;11.60;6.13;;;;;;;4.98;100.00;102918.63;4988047;28;20186;-69
2021/03/01 05:30:09;;;;;;;11.47;6.73;;;;;;;5.13;100.00;102922.22;4949844;28;20236;-69
2021/03/01 05:32:34;;;;;;;37.03;25.33;;;;;;;4.98;100.00;102924.03;4968608;28;20177;-70
2021/03/01 05:36:39;;;;;;;10.73;6.20;;;;;;;4.97;100.00;102918.81;5093251;27;20546;-70
2021/03/01 05:39:05;;;;;;;10.37;6.50;;;;;;;4.99;100.00;102925.69;5069416;28;20239;-71
2021/03/01 05:41:31;;;;;;;13.33;6.43;;;;;;;4.98;100.00;102924.03;5052411;28;20277;-70
2021/03/01 05:43:57;;;;;;;9.73;5.80;;;;;;;5.17;100.00;102928.91;5072017;28;20307;-70
2021/03/01 05:46:22;;;;;;;10.77;6.33;;;;;;;5.18;100.00;102930.59;5048814;28;20219;-71
2021/03/01 05:48:50;;;;;;;9.80;6.37;;;;;;;5.09;100.00;102936.19;5085937;28;20220;-70
2021/03/01 05:51:15;;;;;;;14.13;6.20;;;;;;;5.20;100.00;102933.94;5052834;28;20218;-71
2021/03/01 05:53:44;;;;;;;9.33;5.67;;;;;;;5.09;100.00;102934.38;5079990;28;20210;-73
2021/03/01 05:56:09;;;;;;;11.87;6.33;;;;;;;5.23;100.00;102928.16;5034290;28;20223;-70
2021/03/01 05:58:35;;;;;;;12.00;6.40;;;;;;;5.15;100.00;102925.56;5069760;28;20686;-70
2021/03/01 06:01:04;;;;;;;10.20;6.27;;;;;;;5.20;100.00;102927.69;5053228;28;20765;-70
2021/03/01 06:03:33;;;;;;;11.43;6.40;;;;;;;5.05;100.00;102933.06;5069039;28;20213;-70
2021/03/01 06:06:02;;;;;;;12.20;7.00;;;;;;;5.29;100.00;102932.00;5026368;28;20226;-70
2021/03/01 06:08:34;;;;;;;8.73;5.87;;;;;;;5.30;100.00;102926.44;5034193;28;20667;-70
2021/03/01 06:11:02;;;;;;;12.27;6.33;;;;;;;5.36;100.00;102920.28;5049061;28;20254;-70
2021/03/01 06:13:28;;;;;;;11.73;6.40;;;;;;;5.43;100.00;102914.00;5049558;28;20297;-69
2021/03/01 06:15:59;;;;;;;10.93;6.30;;;;;;;5.46;100.00;102916.31;5046700;28;20216;-69
2021/03/01 06:18:25;;;;;;;10.90;6.57;;;;;;;5.24;100.00;102913.69;5079847;28;20190;-70
2021/03/01 06:20:53;;;;;;;12.43;6.87;;;;;;;5.18;100.00;102914.44;5067989;28;20218;-71
2021/03/01 06:23:33;;;;;;;9.20;6.10;;;;;;;5.35;100.00;102918.63;5077419;28;20233;-70
2021/03/01 06:26:27;;;;;;;12.10;6.63;;;;;;;5.35;100.00;102915.94;5081105;28;20219;-70
2021/03/01 06:29:03;;;;;;;9.30;5.47;;;;;;;5.32;100.00;102912.78;5057341;28;20195;-69
2021/03/01 06:31:32;;;;;;;11.07;6.50;;;;;;;5.53;100.00;102916.41;5064763;28;20226;-70
2021/03/01 06:34:22;;;;;;;10.47;5.93;;;;;;;5.34;100.00;102915.09;5048077;28;20221;-69
2021/03/01 06:37:00;;;;;;;9.30;5.87;;;;;;;5.40;100.00;102913.50;5064245;28;20292;-71
2021/03/01 06:39:32;;;;;;;10.13;5.90;;;;;;;5.36;100.00;102920.28;5064974;28;20190;-69
2021/03/01 06:44:46;;;;;;;12.00;6.40;;;;;;;5.63;100.00;102928.59;5069675;28;20198;-69
2021/03/01 06:47:11;;;;;;;9.37;5.83;;;;;;;5.42;100.00;102924.94;5068274;28;20264;-70
2021/03/01 06:49:38;;;;;;;10.93;6.03;;;;;;;5.39;100.00;102930.72;5055083;28;20175;-70
2021/03/01 06:52:04;;;;;;;9.50;5.90;;;;;;;5.37;100.00;102941.69;5086811;28;20965;-69
2021/03/01 06:54:30;;;;;;;10.23;5.90;;;;;;;5.58;100.00;102933.72;5038171;28;20215;-69
2021/03/01 06:56:55;;;;;;;10.90;6.03;;;;;;;5.58;100.00;102939.09;5014391;28;20226;-69
2021/03/01 06:59:21;;;;;;;10.40;6.00;;;;;;;5.41;100.00;102947.53;5034652;28;20187;-69
2021/03/01 07:01:48;;;;;;;10.30;6.03;;;;;;;5.58;100.00;102938.28;5016712;28;20223;-70
2021/03/01 07:04:27;;;;;;;10.70;6.10;;;;;;;5.55;100.00;102934.09;5052641;28;20224;-69
2021/03/01 07:06:56;;;;;;;10.20;6.53;;;;;;;5.61;100.00;102946.00;5084113;28;20293;-70
2021/03/01 07:09:32;;;;;;;10.73;5.90;;;;;;;5.51;100.00;102942.72;5034655;28;20356;-70
2021/03/01 07:11:58;;;;;;;9.23;5.97;;;;;;;5.33;100.00;102950.31;5033203;28;20637;-69
2021/03/01 07:14:30;;;;;;;11.57;6.00;;;;;;;5.39;100.00;102955.81;5034752;28;20215;-69
2021/03/01 07:16:59;;;;;;;10.50;5.63;;;;;;;5.47;100.00;102954.88;5063178;28;20241;-69
2021/03/01 07:19:32;;;;;;;9.57;5.50;;;;;;;5.53;100.00;102951.44;5071376;28;20194;-70
2021/03/01 07:22:04;;;;;;;10.77;6.17;;;;;;;4.81;100.00;102942.31;5053128;28;20227;-69
2021/03/01 07:24:30;;;;;;;10.43;6.17;;;;;;;5.12;100.00;102946.63;5053984;28;20282;-69
2021/03/01 07:26:59;;;;;;;11.73;6.20;;;;;;;5.05;100.00;102941.13;5033167;28;20604;-69
2021/03/01 07:29:31;;;;;;;10.27;6.03;;;;;;;5.35;100.00;102949.09;5052132;28;20209;-69
2021/03/01 07:32:04;;;;;;;9.97;6.33;;;;;;;5.40;100.00;102957.50;5049168;28;20608;-70
2021/03/01 07:34:33;;;;;;;10.90;6.40;;;;;;;5.36;100.00;102955.31;5017636;28;20215;-70
2021/03/01 07:36:59;;;;;;;10.23;6.00;;;;;;;5.58;100.00;102955.28;5033338;28;20223;-71
2021/03/01 07:39:28;;;;;;;10.30;5.73;;;;;;;5.74;100.00;102959.72;5034075;28;20687;-70
2021/03/01 07:41:54;;;;;;;10.70;5.97;;;;;;;5.81;100.00;102953.38;5032446;28;20280;-69
2021/03/01 07:44:30;;;;;;;11.00;6.30;;;;;;;5.89;100.00;102964.06;5050317;28;20751;-71
2021/03/01 07:46:56;;;;;;;10.67;5.77;;;;;;;5.81;100.00;102966.88;5044620;28;20222;-69
2021/03/01 07:49:44;;;;;;;11.30;5.97;;;;;;;6.00;100.00;102972.53;5037032;28;20711;-70
2021/03/01 07:52:18;;;;;;;9.50;5.80;;;;;;;6.01;100.00;102971.53;5069176;28;20211;-69
2021/03/01 07:54:51;;;;;;;8.87;5.13;;;;;;;5.89;100.00;102966.78;5050823;28;20221;-71
2021/03/01 07:57:17;;;;;;;8.20;5.50;;;;;;;5.83;100.00;102979.13;5049783;28;20243;-70
2021/03/01 07:59:43;;;;;;;7.77;5.40;;;;;;;5.97;100.00;102972.94;5049000;28;20172;-69
2021/03/01 08:02:21;;;;;;;8.80;5.70;;;;;;;5.92;100.00;102980.72;5048778;28;20231;-70
2021/03/01 08:04:47;;;;;;;9.03;5.97;;;;;;;5.85;100.00;102977.09;5017602;28;20210;-70
2021/03/01 08:07:13;;;;;;;11.37;6.13;;;;;;;6.25;100.00;102977.47;5016173;28;20719;-70
2021/03/01 08:09:46;;;;;;;9.80;5.67;;;;;;;6.30;100.00;102974.19;5033474;28;20591;-71
2021/03/01 08:12:30;;;;;;;9.97;5.87;;;;;;;6.35;100.00;102983.41;5032038;28;20604;-69
2021/03/01 08:15:00;;;;;;;11.17;6.50;;;;;;;6.13;100.00;102982.69;5058374;28;20218;-69
2021/03/01 08:17:25;;;;;;;11.57;6.23;;;;;;;6.17;100.00;102974.00;5069360;28;20287;-70
2021/03/01 08:19:59;;;;;;;9.03;6.17;;;;;;;6.21;100.00;102981.56;5053627;28;20649;-69
2021/03/01 08:22:25;;;;;;;12.17;6.67;;;;;;;6.22;100.00;102977.00;5068015;28;20321;-70
2021/03/01 08:24:51;;;;;;;10.33;6.60;;;;;;;6.53;100.00;102976.56;5050800;28;20292;-69
2021/03/01 08:27:26;;;;;;;10.67;6.77;;;;;;;6.56;100.00;102973.50;5049218;28;20223;-69
2021/03/01 08:30:21;;;;;;;9.13;5.80;;;;;;;6.21;100.00;102980.72;5043426;28;20215;-69
2021/03/01 08:33:08;;;;;;;11.27;6.60;;;;;;;6.14;100.00;102979.81;5013436;28;20220;-69
2021/03/01 08:35:35;;;;;;;11.37;6.50;;;;;;;6.05;100.00;102977.38;5031153;28;20279;-70
2021/03/01 08:38:04;;;;;;;12.83;6.87;;;;;;;6.41;100.00;102981.81;5033440;28;20192;-70
2021/03/01 08:40:32;;;;;;;14.73;7.30;;;;;;;6.46;100.00;102985.63;5000518;28;20220;-69
2021/03/01 08:43:00;;;;;;;9.97;6.43;;;;;;;6.54;100.00;102983.66;5015075;28;20601;-71
2021/03/01 08:45:36;;;;;;;10.90;5.87;;;;;;;6.50;100.00;102988.78;4998586;28;20216;-70
2021/03/01 08:48:04;;;;;;;10.13;6.17;;;;;;;6.57;100.00;102983.28;4997801;28;20203;-70
2021/03/01 08:50:34;;;;;;;10.83;6.57;;;;;;;6.63;100.00;102990.63;4997117;28;20717;-69
2021/03/01 08:53:02;;;;;;;12.47;6.93;;;;;;;6.70;100.00;102991.53;4993195;28;20212;-70
2021/03/01 08:55:31;;;;;;;12.17;7.13;;;;;;;6.81;100.00;102987.50;5045194;28;20297;-70
2021/03/01 08:58:01;;;;;;;15.23;6.87;;;;;;;6.69;100.00;102991.72;5030209;28;20184;-69
2021/03/01 09:00:28;;;;;;;10.73;6.60;;;;;;;6.60;100.00;102982.88;5012434;28;20564;-69
2021/03/01 09:03:12;;;;;;;10.63;6.70;;;;;;;6.60;100.00;102985.59;4996157;28;20210;-69
2021/03/01 09:05:38;;;;;;;13.00;6.60;;;;;;;6.57;100.00;102977.88;5028411;28;20646;-69
2021/03/01 09:08:06;;;;;;;13.90;7.23;;;;;;;6.61;100.00;102973.78;5028935;28;20683;-70
2021/03/01 09:10:39;;;;;;;13.13;7.40;;;;;;;6.88;100.00;102974.91;5029415;28;20374;-70
2021/03/01 09:13:07;;;;;;;12.07;7.53;;;;;;;7.01;100.00;102976.72;4995666;28;20804;-71
2021/03/01 09:15:35;;;;;;;13.57;7.60;;;;;;;7.04;100.00;102978.19;4995800;28;20619;-69
2021/03/01 09:18:06;;;;;;;10.87;6.87;;;;;;;6.97;100.00;102977.28;5012210;28;20188;-70
2021/03/01 09:20:41;;;;;;;13.33;7.73;;;;;;;7.01;100.00;102978.56;5028315;28;20231;-70
2021/03/01 09:23:07;;;;;;;12.83;7.67;;;;;;;6.87;100.00;102974.06;5027946;28;20282;-71
2021/03/01 09:25:35;;;;;;;13.90;7.43;;;;;;;7.17;100.00;102975.63;5011499;28;20913;-69
2021/03/01 09:28:01;;;;;;;20.93;16.27;;;;;;;6.96;100.00;102964.81;5028631;28;20684;-69
2021/03/01 09:30:26;;;;;;;13.13;8.17;;;;;;;7.39;100.00;102965.41;5011409;28;20247;-70
2021/03/01 09:33:09;;;;;;;12.13;7.33;;;;;;;7.45;98.96;102975.44;5029109;28;20215;-69
2021/03/01 09:35:35;;;;;;;12.17;7.37;;;;;;;7.45;99.15;102977.31;5028130;28;20242;-69
2021/03/01 09:38:07;;;;;;;12.80;7.73;;;;;;;7.35;100.00;102974.94;5028166;28;20191;-70
2021/03/01 09:40:32;;;;;;;12.63;7.90;;;;;;;7.09;99.13;102982.00;5011994;28;20242;-70
2021/03/01 09:43:05;;;;;;;13.83;7.40;;;;;;;7.02;100.00;102982.94;5029074;28;20192;-71
2021/03/01 09:45:37;;;;;;;12.47;8.03;;;;;;;7.29;99.38;102974.91;5012419;28;20228;-70
2021/03/01 09:48:05;;;;;;;13.67;7.97;;;;;;;7.30;99.86;102977.41;5011733;28;20287;-69
2021/03/01 09:50:32;;;;;;;15.53;7.50;;;;;;;7.28;99.91;102977.81;5027625;28;20599;-69
2021/03/01 09:53:00;;;;;;;15.43;8.33;;;;;;;7.17;100.00;102971.03;5027751;28;20681;-69
2021/03/01 09:55:25;;;;;;;12.90;7.77;;;;;;;7.22;100.00;102970.47;5028603;28;20254;-70
2021/03/01 09:57:51;;;;;;;14.77;8.57;;;;;;;7.14;100.00;102971.44;4992228;28;20220;-70
2021/03/01 10:00:28;;;;;;;15.83;8.87;;;;;;;7.52;100.00;102976.34;4984175;28;20203;-71
2021/03/01 10:03:03;;;;;;;15.83;8.43;;;;;;;7.43;100.00;102969.41;5030962;28;20234;-69
2021/03/01 10:05:35;;;;;;;15.20;8.30;;;;;;;7.74;99.96;102975.25;5031210;28;20284;-69
2021/03/01 10:08:04;;;;;;;15.57;9.13;;;;;;;7.65;97.29;102965.63;5032006;28;20203;-70
2021/03/01 10:10:37;;;;;;;13.77;8.97;;;;;;;7.72;97.50;102970.03;5014699;28;20223;-70
2021/03/01 10:13:04;;;;;;;14.90;9.17;;;;;;;7.75;97.00;102972.38;5030856;28;20585;-71
2021/03/01 10:15:32;;;;;;;14.57;8.60;;;;;;;7.75;97.68;102977.78;5032416;28;20740;-71
2021/03/01 10:18:07;;;;;;;13.87;8.63;;;;;;;7.84;97.03;102979.31;5017916;28;20904;-68
2021/03/01 10:20:34;;;;;;;14.77;8.33;;;;;;;7.87;96.65;102972.66;5011367;28;20354;-69
2021/03/01 10:23:04;;;;;;;13.50;8.23;;;;;;;7.56;97.26;102972.22;5033812;28;20234;-69
2021/03/01 10:25:34;;;;;;;14.20;8.60;;;;;;;7.64;97.53;102971.22;5051835;28;20665;-69
2021/03/01 10:28:02;;;;;;;14.83;9.00;;;;;;;7.47;98.75;102967.13;5018777;28;20179;-69
2021/03/01 10:30:28;;;;;;;15.63;8.93;;;;;;;7.87;97.70;102969.94;5034084;28;20223;-69
2021/03/01 10:33:06;;;;;;;14.93;8.77;;;;;;;8.09;97.28;102975.06;5053331;28;20211;-70
2021/03/01 10:35:32;;;;;;;15.83;9.70;;;;;;;7.99;96.57;102971.09;5051000;28;20244;-69
2021/03/01 10:38:02;;;;;;;15.50;9.10;;;;;;;8.26;94.16;102969.19;5052041;28;20180;-69
2021/03/01 10:40:29;;;;;;;16.47;9.87;;;;;;;8.34;94.80;102969.00;5034249;28;20306;-69
2021/03/01 10:42:55;;;;;;;15.60;9.30;;;;;;;8.23;94.50;102974.16;5018574;28;20214;-68
2021/03/01 10:45:23;;;;;;;14.27;9.10;;;;;;;7.89;93.90;102973.28;5034645;28;20176;-68
2021/03/01 10:47:59;;;;;;;13.83;8.87;;;;;;;7.90;96.11;102969.56;5059372;28;20190;-69
2021/03/01 10:50:25;;;;;;;36.50;22.73;;;;;;;8.07;94.64;102967.16;5037466;28;20656;-69
2021/03/01 10:52:51;;;;;;;16.47;9.27;;;;;;;8.00;93.22;102975.44;5068612;28;20703;-69
2021/03/01 10:55:17;;;;;;;12.47;8.27;;;;;;;7.99;94.79;102973.78;5051337;28;20216;-69
2021/03/01 10:57:43;;;;;;;12.07;8.30;;;;;;;8.43;93.62;102971.34;5052639;28;20188;-69
2021/03/01 11:00:09;;;;;;;13.13;8.90;;;;;;;8.57;92.84;102961.38;5051749;28;20187;-70
2021/03/01 11:02:35;;;;;;;12.97;8.37;;;;;;;8.28;89.16;102977.94;5034169;28;20220;-69
2021/03/01 11:05:00;;;;;;;15.50;8.97;;;;;;;8.39;91.80;102982.78;5035978;28;20175;-71
2021/03/01 11:07:27;;;;;;;11.30;7.83;;;;;;;8.59;90.33;102978.25;5084901;28;20219;-69
2021/03/01 11:09:53;;;;;;;12.90;8.07;;;;;;;8.67;89.22;102973.50;5051785;28;20190;-70
2021/03/01 11:12:21;;;;;;;13.23;9.00;;;;;;;8.52;88.43;102978.25;5050591;28;20676;-69
2021/03/01 11:14:48;;;;;;;15.30;9.17;;;;;;;8.44;89.34;102980.28;5055255;28;20267;-68
2021/03/01 11:17:14;;;;;;;14.43;9.07;;;;;;;8.41;91.68;102980.72;5037110;28;20626;-69
2021/03/01 11:19:42;;;;;;;12.87;8.77;;;;;;;8.41;90.93;102979.88;5070461;28;20182;-69
2021/03/01 11:22:10;;;;;;;12.77;8.47;;;;;;;8.10;91.09;102976.78;5070556;28;20601;-69
2021/03/01 11:24:35;;;;;;;15.40;9.83;;;;;;;8.22;90.67;102984.16;5019333;28;20219;-69
2021/03/01 11:27:01;;;;;;;12.90;9.27;;;;;;;7.97;92.22;102971.28;5050066;28;20234;-69
2021/03/01 11:29:26;;;;;;;15.17;8.93;;;;;;;8.44;89.73;102958.63;5067171;28;20233;-69
2021/03/01 11:31:54;;;;;;;14.37;9.20;;;;;;;8.09;91.03;102965.16;5049509;28;20605;-69